This is the latest recevied weather packets stored in our database for station/object BMCB-19. If no packets are shown the sender has not sent any weather packets the latest 10 day(s).
| Time | Temp. | Humidity | Pressure | Rain* | Wind** | Luminosity | Snow |
|---|---|---|---|---|---|---|---|
| 1777634460 | 20.56° C | 26% | 1023.9 hPa | 0 mm | - | 108 W/m² | - |
| 1777633861 | 20.56° C | 27% | 1024 hPa | 0 mm | - | 108 W/m² | - |
| 1777624859 | 16.11° C | 32% | 1025.1 hPa | 0 mm | - | 836 W/m² | - |
| 1777623659 | 15.56° C | 34% | 1025 hPa | 0 mm | - | 779 W/m² | - |
| 1777618207 | 12.22° C | 38% | 1025.2 hPa | 0 mm | - | 457 W/m² | - |
| 1777615808 | 11.11° C | 41% | 1025.3 hPa | 0 mm | - | 298 W/m² | - |
| 1777609810 | 8.33° C | 44% | 1025.2 hPa | 0 mm | - | 12 W/m² | - |
| 1777605609 | 7.78° C | 45% | 1025.3 hPa | 0 mm | - | 0 W/m² | - |
| 1777604409 | 8.33° C | 45% | 1025.4 hPa | 0 mm | - | 0 W/m² | - |
| 1777599609 | 10° C | 39% | 1025.1 hPa | 0 mm | - | 0 W/m² | - |
| 1777594209 | 10.56° C | 37% | 1025.5 hPa | 0 mm | - | 0 W/m² | - |
| 1777593010 | 10.56° C | 37% | 1025.5 hPa | 0 mm | - | 0 W/m² | - |
| 1777588810 | 10° C | 40% | 1025.6 hPa | 0 mm | - | 0 W/m² | - |
| 1777580413 | 12.22° C | 34% | 1025.2 hPa | 0 mm | - | 0 W/m² | - |
| 1777579813 | 12.22° C | 34% | 1025.1 hPa | 0 mm | - | 0 W/m² | - |
| 1777578016 | 12.78° C | 34% | 1024.9 hPa | 0 mm | - | 0 W/m² | - |
| 1777572612 | 16.11° C | 28% | 1023.9 hPa | 0 mm | - | 37 W/m² | - |
| 1777564211 | 19.44° C | 22% | 1023.3 hPa | 0 mm | - | 632 W/m² | - |
| 1777563011 | 19.44° C | 22% | 1023.4 hPa | 0 mm | - | 706 W/m² | - |
| 1777562412 | 19.44° C | 22% | 1023.4 hPa | 0 mm | - | 734 W/m² | - |
| 1777558811 | 19.44° C | 23% | 1023.7 hPa | 0 mm | - | 898 W/m² | - |
| 1777557612 | 19.44° C | 23% | 1023.8 hPa | 0 mm | - | 951 W/m² | - |
| 1777555211 | 18.89° C | 25% | 1024.2 hPa | 0 mm | - | 102 W/m² | - |
| 1777543812 | 16.11° C | 29% | 1025.4 hPa | 0 mm | - | 102 W/m² | - |
| 1777542612 | 15.56° C | 32% | 1025.5 hPa | 0 mm | - | 987 W/m² | - |
* Rain latest hour (hover to see other rain measurements)
** Current wind speed in m/s (hover to see current wind gust speed)